• Join FlightAware (Why Join?)
  • Login
  • US Flag 
05:26PM EDT


 

Airport Tracker/Info


-or-


 

Live Flight TrackerFlight Track Log ✈ FIN666 ✈ 13-Oct-2013 ✈ EKCH / CPH - EFHK / HEL

Flight Track Log - Related Links

Times and Time Zones

All times are in EDT time to prevent confusion due to time zone crossing. See the FIN666 flight status page for this flight to view local times or setup timezone preferences in your user account.

Time Position Orientation Groundspeed Altitude Reporting Facility
EDT Latitude Longitude Course Direction KTS MPH feet Rate Location/Type
07:37AM 55.8244 13.0824 49° Northeast  Level Estimated
07:38AM 55.8929 13.2255 49° Northeast  Level Estimated
07:39AM 55.9613 13.3692 50° Northeast  Level Estimated
07:40AM 56.0294 13.5134 50° Northeast  Level Estimated
07:41AM 56.1012 13.6661 50° Northeast  Level Estimated
07:42AM 56.1728 13.8194 50° Northeast  Level Estimated
07:43AM 56.2442 13.9732 50° Northeast  Level Estimated
07:44AM 56.3154 14.1277 50° Northeast  Level Estimated
07:45AM 56.3864 14.2827 50° Northeast  Level Estimated
07:46AM 56.4572 14.4383 50° Northeast  Level Estimated
07:47AM 56.5278 14.5944 51° Northeast  Level Estimated
07:48AM 56.5982 14.7512 51° Northeast  Level Estimated
07:49AM 56.6684 14.9085 51° Northeast  Level Estimated
07:50AM 56.7385 15.0665 51° Northeast  Level Estimated
07:51AM 56.8083 15.2250 51° Northeast  Level Estimated
07:52AM 56.8779 15.3841 51° Northeast  Level Estimated
07:53AM 56.9473 15.5438 51° Northeast  Level Estimated
07:54AM 57.0165 15.7041 52° Northeast  Level Estimated
07:55AM 57.0855 15.8650 52° Northeast  Level Estimated
07:56AM 57.1544 16.0265 52° Northeast  Level Estimated
07:57AM 57.2229 16.1886 52° Northeast  Level Estimated
07:58AM 57.2913 16.3512 52° Northeast  Level Estimated
07:59AM 57.3595 16.5145 52° Northeast  Level Estimated
08:00AM 57.4275 16.6785 52° Northeast  Level Estimated
08:01AM 57.4952 16.8430 52° Northeast  Level Estimated
08:02AM 57.5628 17.0081 53° Northeast  Level Estimated
08:03AM 57.6301 17.1738 53° Northeast  Level Estimated
08:04AM 57.6972 17.3402 53° Northeast  Level Estimated
08:05AM 57.7640 17.5072 53° Northeast  Level Estimated
08:06AM 57.8307 17.6747 53° Northeast  Level Estimated
08:07AM 57.8971 17.8430 53° Northeast  Level Estimated
08:08AM 57.9634 18.0118 53° Northeast  Level Estimated
08:09AM 58.0294 18.1812 54° Northeast  Level Estimated
08:10AM 58.0951 18.3513 54° Northeast  Level Estimated
08:11AM 58.1607 18.5220 54° Northeast  Level Estimated
08:12AM 58.2260 18.6934 54° Northeast  Level Estimated
08:13AM 58.2911 18.8653 54° Northeast  Level Estimated
08:14AM 58.3559 19.0379 54° Northeast  Level Estimated
08:15AM 58.4205 19.2112 54° Northeast  Level Estimated
08:16AM 58.4849 19.3850 55° Northeast  Level Estimated
08:17AM 58.5490 19.5595 55° Northeast  Level Estimated
08:18AM 58.6129 19.7347 55° Northeast  Level Estimated
08:19AM 58.6766 19.9104 55° Northeast  Level Estimated
08:20AM 58.7401 20.0869 55° Northeast  Level Estimated
08:21AM 58.8032 20.2640 55° Northeast  Level Estimated
08:22AM 58.8662 20.4417 56° Northeast  Level Estimated
08:23AM 58.9289 20.6200 56° Northeast  Level Estimated
08:24AM 58.9950 20.8096 56° Northeast  Level Estimated
08:25AM 59.0608 20.9999 56° Northeast  Level Estimated
08:26AM 59.1264 21.1909 56° Northeast  Level Estimated
08:27AM 59.1917 21.3826 56° Northeast  Level Estimated
08:28AM 59.2567 21.5751 56° Northeast  Level Estimated
08:29AM 59.3214 21.7683 57° Northeast  Level Estimated
08:30AM 59.3858 21.9623 57° Northeast  Level Estimated
08:31AM 59.4499 22.1570 57° Northeast  Level Estimated
08:32AM 59.5138 22.3524 57° Northeast  Level Estimated
08:33AM 59.5773 22.5485 57° Northeast  Level Estimated
08:34AM 59.6406 22.7454 57° Northeast  Level Estimated
08:35AM 59.7035 22.9431 58° Northeast  Level Estimated
08:36AM 59.7662 23.1415 58° Northeast  Level Estimated
08:37AM 59.8286 23.3406 58° Northeast  Level Estimated
08:38AM 59.8906 23.5405 58° Northeast  Level Estimated
08:39AM 59.9524 23.7411 58° Northeast  Level Estimated
08:40AM 60.0138 23.9425 59° Northeast  Level Estimated
08:41AM 60.0750 24.1446 59° Northeast  Level Estimated
08:42AM 60.1358 24.3475 59° Northeast  Level Estimated
08:43AM 60.1963 24.5511 59° Northeast  Level Estimated
08:44AM 60.2565 24.7555 59° Northeast  Level Estimated
08:45AM 60.3164 24.9606 59° Northeast  Level Estimated
08:46AM 60.3172 24.9633 59° Northeast  Level Estimated
08:47AM 60.3172 24.9633 37° Northeast  Level Estimated
08:48AM 60.3172 24.9633 37° Northeast  Level Estimated
08:49AM 60.3172 24.9633 37° Northeast  Level Estimated
08:50AM 60.3172 24.9633 37° Northeast  Level Estimated
08:51AM 60.3172 24.9633 37° Northeast  Level Estimated
08:52AM 60.3172 24.9633 37° Northeast  Level Estimated
08:53AM 60.3172 24.9633 37° Northeast  Level Estimated
08:54AM 60.3172 24.9633 37° Northeast  Level Estimated
08:55AM 60.3172 24.9633 37° Northeast  Level Estimated
08:56AM 60.3172 24.9633 37° Northeast  Level Estimated
08:57AM 60.3172 24.9633 37° Northeast  Level Estimated
08:58AM 60.3172 24.9633 37° Northeast  Level Estimated